Time;durP1;ratioP1;P1;durP2;ratioP2;P2;SDS_P1;SDS_P2;PMS_P1;PMS_P2;Temp;Humidity;BMP_temperature;BMP_pressure;BME280_temperature;BME280_humidity;BME280_pressure;Samples;Min_cycle;Max_cycle;Signal;HPM_P1;HPM_P2
2023/09/29 00:01:39;;;;;;;1.92;1.83;;;16.50;99.90;;;;;;4962927;28;20134;-85
2023/09/29 00:04:06;;;;;;;1.73;1.63;;;16.30;99.90;;;;;;4964758;28;20518;-85
2023/09/29 00:06:33;;;;;;;1.85;1.75;;;16.20;99.90;;;;;;4964705;28;20042;-84
2023/09/29 00:09:12;;;;;;;1.85;1.75;;;16.20;99.90;;;;;;4964454;28;20054;-85
2023/09/29 00:11:41;;;;;;;2.10;2.00;;;16.30;99.90;;;;;;4972229;28;20057;-86
2023/09/29 00:14:09;;;;;;;1.83;1.73;;;16.40;99.90;;;;;;4971835;28;20038;-89
2023/09/29 00:16:35;;;;;;;1.75;1.65;;;16.50;99.90;;;;;;4989525;28;20046;-84
2023/09/29 00:19:03;;;;;;;1.70;1.60;;;16.50;99.90;;;;;;4966109;28;20060;-86
2023/09/29 00:21:29;;;;;;;1.88;1.77;;;16.40;99.90;;;;;;4976029;28;20057;-85
2023/09/29 00:23:58;;;;;;;2.00;1.90;;;16.40;99.90;;;;;;4988673;28;20113;-85
2023/09/29 00:26:29;;;;;;;1.92;1.83;;;16.40;99.90;;;;;;4954708;28;20156;-85
2023/09/29 00:29:03;;;;;;;1.85;1.75;;;16.60;99.90;;;;;;4976866;28;20137;-85
2023/09/29 00:31:35;;;;;;;1.80;1.70;;;16.50;99.90;;;;;;4965552;28;20054;-87
2023/09/29 00:34:01;;;;;;;1.95;1.85;;;16.40;99.90;;;;;;4969673;28;20044;-87
2023/09/29 00:36:29;;;;;;;2.03;1.92;;;16.40;99.90;;;;;;4969348;28;20053;-85
2023/09/29 00:39:13;;;;;;;1.98;1.88;;;16.40;99.90;;;;;;4965868;28;20103;-86
2023/09/29 00:41:40;;;;;;;2.13;2.03;;;16.40;99.90;;;;;;4969595;28;20065;-85
2023/09/29 00:44:15;;;;;;;1.98;1.88;;;16.50;99.90;;;;;;4962503;28;20613;-85
2023/09/29 00:46:44;;;;;;;1.75;1.65;;;16.60;99.90;;;;;;4970410;28;20042;-84
2023/09/29 00:49:11;;;;;;;1.80;1.70;;;16.50;99.90;;;;;;4968724;28;20172;-85
2023/09/29 00:51:39;;;;;;;2.05;1.95;;;16.70;99.90;;;;;;4973257;28;20137;-86
2023/09/29 00:54:08;;;;;;;2.00;1.90;;;16.60;99.90;;;;;;4955468;28;20570;-86
2023/09/29 00:56:50;;;;;;;1.92;1.83;;;16.70;99.90;;;;;;4967163;28;20054;-85
2023/09/29 00:59:31;;;;;;;1.90;1.80;;;16.50;99.90;;;;;;4951414;28;20042;-87
2023/09/29 01:02:03;;;;;;;2.00;1.90;;;16.70;99.90;;;;;;4963113;28;20074;-85
2023/09/29 01:04:38;;;;;;;2.13;2.03;;;16.80;99.90;;;;;;4968480;28;20116;-86
2023/09/29 01:07:16;;;;;;;1.98;1.88;;;16.90;99.90;;;;;;4970484;28;20866;-88
2023/09/29 01:09:58;;;;;;;;;;;;;;;;;;;;;
2023/09/29 01:12:27;;;;;;;2.10;2.00;;;16.70;99.90;;;;;;4968963;28;20543;-85
2023/09/29 01:14:53;;;;;;;2.22;2.13;;;16.70;99.90;;;;;;4969662;28;20082;-86
2023/09/29 01:17:25;;;;;;;2.13;2.03;;;16.70;99.90;;;;;;4973861;28;20054;-85
2023/09/29 01:20:37;;;;;;;2.25;2.15;;;16.90;99.90;;;;;;4966489;28;20059;-86
2023/09/29 01:23:07;;;;;;;2.22;2.13;;;16.90;99.90;;;;;;4972527;28;20065;-85
2023/09/29 01:25:37;;;;;;;2.30;2.20;;;16.70;99.90;;;;;;4950930;28;20042;-86
2023/09/29 01:28:12;;;;;;;2.25;2.15;;;16.60;99.90;;;;;;4950759;28;20138;-86
2023/09/29 01:30:53;;;;;;;2.15;2.05;;;16.80;99.90;;;;;;4988408;28;20088;-85
2023/09/29 01:33:19;;;;;;;2.03;1.92;;;16.90;99.90;;;;;;4967646;28;20057;-84
2023/09/29 01:35:44;;;;;;;2.10;2.00;;;17.00;99.90;;;;;;4970608;28;20031;-84
2023/09/29 01:38:10;;;;;;;2.15;2.05;;;16.60;99.90;;;;;;4961117;28;20112;-84
2023/09/29 01:40:36;;;;;;;2.20;2.10;;;16.60;99.90;;;;;;4969730;28;20051;-86
2023/09/29 01:43:04;;;;;;;2.15;2.05;;;16.80;99.90;;;;;;4957820;28;20049;-85
2023/09/29 01:45:38;;;;;;;2.10;2.00;;;16.90;99.90;;;;;;4968002;28;20093;-84
2023/09/29 01:48:28;;;;;;;2.20;2.10;;;16.90;99.90;;;;;;4968335;28;20049;-85
2023/09/29 01:50:53;;;;;;;2.13;2.03;;;16.60;99.90;;;;;;4928407;28;20066;-84
2023/09/29 01:53:19;;;;;;;2.13;2.03;;;16.90;99.90;;;;;;4967812;28;20050;-86
2023/09/29 01:58:45;;;;;;;1.80;1.70;;;17.00;99.90;;;;;;4955999;28;20042;-84
2023/09/29 02:01:17;;;;;;;2.08;1.98;;;17.00;99.90;;;;;;4978864;28;20061;-85
2023/09/29 02:03:45;;;;;;;1.80;1.70;;;17.10;99.90;;;;;;4970944;28;20129;-85
2023/09/29 02:06:11;;;;;;;1.98;1.88;;;16.90;99.90;;;;;;4972329;28;20046;-84
2023/09/29 02:08:36;;;;;;;2.10;2.00;;;16.90;99.90;;;;;;4970194;28;20047;-85
2023/09/29 02:11:07;;;;;;;2.05;1.95;;;17.00;99.90;;;;;;4971959;28;20050;-85
2023/09/29 02:13:36;;;;;;;1.85;1.75;;;17.10;99.90;;;;;;4965905;28;20524;-86
2023/09/29 02:16:12;;;;;;;2.15;2.05;;;17.00;99.90;;;;;;4966069;28;20101;-86
2023/09/29 02:18:46;;;;;;;2.05;1.95;;;17.00;99.90;;;;;;4969791;28;20049;-87
2023/09/29 02:21:21;;;;;;;2.05;1.95;;;17.00;99.90;;;;;;4951248;28;20061;-85
2023/09/29 02:23:50;;;;;;;1.77;1.67;;;17.10;99.90;;;;;;4972001;28;20558;-85
2023/09/29 02:26:16;;;;;;;2.05;1.95;;;17.00;99.90;;;;;;4967849;28;20054;-86
2023/09/29 02:28:51;;;;;;;2.20;2.10;;;17.20;99.90;;;;;;4967817;28;20042;-86
2023/09/29 02:31:26;;;;;;;1.80;1.70;;;17.20;99.90;;;;;;4956543;28;20172;-86
2023/09/29 02:33:55;;;;;;;2.15;2.05;;;17.10;99.90;;;;;;4984867;28;20146;-86
2023/09/29 02:36:26;;;;;;;1.75;1.65;;;17.20;99.90;;;;;;4965917;28;20038;-85
2023/09/29 02:38:52;;;;;;;2.03;1.92;;;17.30;99.90;;;;;;4972986;28;20069;-86
2023/09/29 02:41:18;;;;;;;2.15;2.05;;;17.00;99.90;;;;;;4959702;28;20501;-85
2023/09/29 02:43:43;;;;;;;2.13;2.03;;;17.30;99.90;;;;;;4997032;28;20526;-85
2023/09/29 02:46:15;;;;;;;2.10;2.00;;;17.00;99.90;;;;;;4954186;28;20041;-85
2023/09/29 02:48:42;;;;;;;2.13;2.03;;;17.20;99.90;;;;;;4953230;28;20047;-85
2023/09/29 02:51:18;;;;;;;2.20;2.10;;;17.30;99.90;;;;;;4973274;28;20042;-85
2023/09/29 02:53:44;;;;;;;2.17;2.08;;;17.10;99.90;;;;;;4969888;28;20146;-85
2023/09/29 02:56:12;;;;;;;2.20;2.10;;;16.90;99.90;;;;;;4970080;28;20071;-85
2023/09/29 02:58:39;;;;;;;2.28;2.17;;;17.00;99.90;;;;;;4952910;28;20057;-85
2023/09/29 03:01:12;;;;;;;2.00;1.90;;;17.10;99.90;;;;;;4969877;28;20034;-85
2023/09/29 03:03:43;;;;;;;1.70;1.60;;;17.00;99.90;;;;;;4971565;28;20137;-85
2023/09/29 03:06:16;;;;;;;2.10;2.00;;;17.20;99.90;;;;;;4954604;28;20155;-86
2023/09/29 03:08:42;;;;;;;2.10;2.00;;;16.90;99.90;;;;;;4965504;28;20043;-85
2023/09/29 03:11:13;;;;;;;1.90;1.80;;;17.20;99.90;;;;;;4965709;28;20053;-85
2023/09/29 03:13:43;;;;;;;2.20;2.10;;;17.20;99.90;;;;;;4969838;28;20053;-88
2023/09/29 03:16:08;;;;;;;2.08;1.98;;;16.90;99.90;;;;;;4955533;28;20045;-85
2023/09/29 03:18:35;;;;;;;1.98;1.88;;;17.30;99.90;;;;;;4963068;28;21406;-84
2023/09/29 03:21:01;;;;;;;1.70;1.60;;;17.20;99.90;;;;;;4968329;28;20054;-84
2023/09/29 03:23:28;;;;;;;1.90;1.80;;;16.90;99.90;;;;;;4954023;28;20073;-85
2023/09/29 03:25:55;;;;;;;1.73;1.63;;;17.10;99.90;;;;;;4970275;28;20052;-86
2023/09/29 03:28:21;;;;;;;1.80;1.70;;;17.20;99.90;;;;;;4973502;28;20054;-85
2023/09/29 03:30:46;;;;;;;1.80;1.70;;;17.20;99.90;;;;;;4969660;28;20046;-86
2023/09/29 03:33:13;;;;;;;2.00;1.90;;;17.20;99.90;;;;;;4970299;28;20096;-85
2023/09/29 03:35:43;;;;;;;1.98;1.88;;;16.80;99.90;;;;;;4968083;28;20078;-86
2023/09/29 03:38:08;;;;;;;1.88;1.77;;;17.00;99.90;;;;;;4972425;28;20067;-85
2023/09/29 03:40:34;;;;;;;1.80;1.70;;;17.00;99.90;;;;;;4959420;28;20456;-85
2023/09/29 03:43:01;;;;;;;1.70;1.60;;;17.00;99.90;;;;;;4963752;28;20050;-85
2023/09/29 03:45:30;;;;;;;1.60;1.50;;;16.70;99.90;;;;;;4983031;28;20041;-85
2023/09/29 03:47:56;;;;;;;1.58;1.48;;;17.10;99.90;;;;;;4981692;28;20065;-85
2023/09/29 03:50:27;;;;;;;1.67;1.58;;;16.80;99.90;;;;;;4973814;28;20060;-85
2023/09/29 03:52:53;;;;;;;1.58;1.48;;;17.10;99.90;;;;;;4972634;28;20046;-86
2023/09/29 03:55:24;;;;;;;1.58;1.48;;;16.90;99.90;;;;;;4972987;28;20038;-85
2023/09/29 03:57:50;;;;;;;1.58;1.48;;;17.20;99.90;;;;;;4976175;28;20050;-84
2023/09/29 04:00:18;;;;;;;1.48;1.38;;;17.20;99.90;;;;;;4976275;28;20038;-85
2023/09/29 04:02:44;;;;;;;1.35;1.33;;;16.90;99.90;;;;;;4976987;28;20629;-87
2023/09/29 04:05:10;;;;;;;1.35;1.33;;;17.30;99.90;;;;;;4977754;28;20047;-85
2023/09/29 04:07:39;;;;;;;1.27;1.27;;;16.90;99.90;;;;;;4981635;28;20108;-85
2023/09/29 04:10:08;;;;;;;1.27;1.27;;;17.10;99.90;;;;;;4976573;28;20853;-86
2023/09/29 04:12:35;;;;;;;1.23;1.23;;;17.20;99.90;;;;;;4982237;28;20054;-85
2023/09/29 04:15:01;;;;;;;1.25;1.25;;;17.00;99.90;;;;;;4980157;28;20046;-85
2023/09/29 04:17:26;;;;;;;1.27;1.27;;;17.00;99.90;;;;;;4978719;28;20608;-85
2023/09/29 04:19:55;;;;;;;1.10;1.10;;;17.00;99.90;;;;;;4982764;28;20559;-84
2023/09/29 04:22:24;;;;;;;1.20;1.20;;;17.00;99.90;;;;;;4978534;28;20101;-84
2023/09/29 04:24:52;;;;;;;1.15;1.15;;;16.90;99.90;;;;;;4959054;28;20415;-85
2023/09/29 04:27:18;;;;;;;1.38;1.27;;;17.10;99.90;;;;;;4985095;28;20042;-86
2023/09/29 04:29:44;;;;;;;1.23;1.23;;;17.20;99.90;;;;;;4974428;28;20097;-85
2023/09/29 04:32:10;;;;;;;1.10;1.10;;;17.20;99.90;;;;;;4969530;28;20042;-85
2023/09/29 04:34:35;;;;;;;1.15;1.15;;;17.30;99.90;;;;;;4974981;28;20316;-84
2023/09/29 04:37:01;;;;;;;1.15;1.15;;;17.00;99.90;;;;;;4976421;28;20062;-84
2023/09/29 04:39:27;;;;;;;1.20;1.20;;;17.30;99.90;;;;;;4977469;28;20078;-85
2023/09/29 04:41:52;;;;;;;1.08;1.08;;;17.20;99.90;;;;;;4971823;28;20050;-86
2023/09/29 04:44:18;;;;;;;1.08;1.08;;;16.90;99.90;;;;;;4977296;28;20121;-85
2023/09/29 04:46:44;;;;;;;1.10;1.10;;;17.30;99.90;;;;;;4977346;28;20776;-85
2023/09/29 04:49:20;;;;;;;;;;;;;;;;;;;;;
2023/09/29 04:51:46;;;;;;;1.10;1.10;;;17.30;99.90;;;;;;4975004;28;20103;-87
2023/09/29 04:54:19;;;;;;;1.00;1.00;;;17.30;99.90;;;;;;4960498;28;20505;-86
2023/09/29 04:57:00;;;;;;;1.08;1.08;;;17.30;99.90;;;;;;4968028;28;20545;-87
2023/09/29 04:59:29;;;;;;;1.08;1.08;;;17.30;99.90;;;;;;4964186;28;20499;-89
2023/09/29 05:01:55;;;;;;;1.10;1.10;;;17.50;99.90;;;;;;4981185;28;20385;-87
2023/09/29 05:04:24;;;;;;;1.00;1.00;;;17.40;99.90;;;;;;4973478;28;20052;-87
2023/09/29 05:06:49;;;;;;;1.00;1.00;;;17.40;99.90;;;;;;4980195;28;20140;-85
2023/09/29 05:09:21;;;;;;;1.00;1.00;;;17.50;99.90;;;;;;4979804;28;20554;-87
2023/09/29 05:11:50;;;;;;;0.90;0.90;;;17.50;99.90;;;;;;4954890;28;20069;-87
2023/09/29 05:14:16;;;;;;;1.00;1.00;;;17.50;99.90;;;;;;4976912;28;20055;-88
2023/09/29 05:16:51;;;;;;;1.00;1.00;;;17.70;99.90;;;;;;4963493;28;20501;-87
2023/09/29 05:19:16;;;;;;;0.90;0.90;;;17.80;99.90;;;;;;4968406;28;20398;-86
2023/09/29 05:21:54;;;;;;;0.90;0.90;;;17.70;99.90;;;;;;4979676;28;20053;-89
2023/09/29 05:24:22;;;;;;;0.90;0.90;;;17.70;99.90;;;;;;4961225;28;20056;-87
2023/09/29 05:26:51;;;;;;;0.90;0.90;;;17.70;99.90;;;;;;4979310;28;20046;-86
2023/09/29 05:29:19;;;;;;;0.90;0.90;;;17.80;99.90;;;;;;4965426;28;20042;-88
2023/09/29 05:32:07;;;;;;;0.90;0.90;;;17.90;99.90;;;;;;4982380;28;20042;-87
2023/09/29 05:34:36;;;;;;;1.00;1.00;;;17.80;99.90;;;;;;4964435;28;20126;-87
2023/09/29 05:37:17;;;;;;;0.80;0.80;;;17.80;99.90;;;;;;4959272;28;20548;-85
2023/09/29 05:39:45;;;;;;;0.80;0.80;;;17.70;99.90;;;;;;4961697;28;20386;-85
2023/09/29 05:42:49;;;;;;;0.80;0.80;;;17.80;99.90;;;;;;4973499;28;20109;-86
2023/09/29 05:45:21;;;;;;;0.80;0.80;;;17.80;99.90;;;;;;4971402;28;20483;-85
2023/09/29 05:47:51;;;;;;;0.80;0.80;;;17.80;99.90;;;;;;4982700;28;20051;-87
2023/09/29 05:50:23;;;;;;;0.70;0.70;;;17.80;99.90;;;;;;4950404;28;20078;-86
2023/09/29 05:52:52;;;;;;;0.75;0.75;;;17.90;99.90;;;;;;4969146;28;20141;-85
2023/09/29 05:55:30;;;;;;;0.80;0.80;;;17.80;99.90;;;;;;4968328;28;20526;-91
2023/09/29 05:57:55;;;;;;;0.80;0.80;;;17.90;99.90;;;;;;4969463;28;20222;-86
2023/09/29 06:00:39;;;;;;;0.80;0.80;;;17.90;99.90;;;;;;4974236;28;20066;-86
2023/09/29 06:03:10;;;;;;;0.70;0.70;;;18.00;99.90;;;;;;4968867;28;20039;-87
2023/09/29 06:05:39;;;;;;;0.80;0.80;;;17.90;99.90;;;;;;4963125;28;20054;-87
2023/09/29 06:08:08;;;;;;;0.80;0.80;;;17.90;99.90;;;;;;4975272;28;20041;-86
2023/09/29 06:10:39;;;;;;;0.73;0.73;;;18.00;99.90;;;;;;4968557;28;20598;-86
2023/09/29 06:13:11;;;;;;;0.70;0.70;;;18.00;99.90;;;;;;4951725;28;20050;-87
2023/09/29 06:15:48;;;;;;;0.90;0.90;;;18.00;99.90;;;;;;4972669;28;20388;-86
2023/09/29 06:18:17;;;;;;;0.60;0.60;;;18.10;99.90;;;;;;4959275;28;20046;-88
2023/09/29 06:20:49;;;;;;;0.70;0.70;;;17.90;99.90;;;;;;4978129;28;20638;-87
2023/09/29 06:23:17;;;;;;;0.70;0.70;;;18.00;99.90;;;;;;4977450;28;20540;-85
2023/09/29 06:25:46;;;;;;;0.70;0.70;;;18.00;99.90;;;;;;4981600;28;20084;-85
2023/09/29 06:28:24;;;;;;;0.60;0.60;;;18.10;99.90;;;;;;4976156;28;20053;-86
2023/09/29 06:30:55;;;;;;;0.65;0.65;;;18.00;99.90;;;;;;4975818;28;20093;-85
2023/09/29 06:33:27;;;;;;;0.70;0.70;;;18.10;99.90;;;;;;4973948;28;20087;-86
2023/09/29 06:35:53;;;;;;;0.65;0.65;;;18.00;99.90;;;;;;4979625;28;20045;-86
2023/09/29 06:38:29;;;;;;;0.73;0.73;;;18.00;99.90;;;;;;4971071;28;20046;-84
2023/09/29 06:40:57;;;;;;;0.70;0.70;;;18.10;99.90;;;;;;4973237;28;20117;-83
2023/09/29 06:43:22;;;;;;;0.70;0.70;;;18.10;99.90;;;;;;4974569;28;20120;-85
2023/09/29 06:45:48;;;;;;;0.70;0.70;;;18.10;99.90;;;;;;4975140;28;20132;-84
2023/09/29 06:48:14;;;;;;;0.60;0.60;;;18.00;99.90;;;;;;4971819;28;20052;-87
2023/09/29 06:50:39;;;;;;;0.70;0.70;;;18.10;99.90;;;;;;4957800;28;20125;-86
2023/09/29 06:53:05;;;;;;;0.70;0.70;;;18.10;99.90;;;;;;4978949;28;20069;-84
2023/09/29 06:55:33;;;;;;;0.70;0.70;;;18.10;99.90;;;;;;4976403;28;20052;-86
2023/09/29 06:57:59;;;;;;;0.75;0.75;;;18.10;99.90;;;;;;4980852;28;20034;-84
2023/09/29 07:00:28;;;;;;;0.70;0.70;;;18.20;99.90;;;;;;4974856;28;20412;-84
2023/09/29 07:02:53;;;;;;;0.70;0.70;;;18.20;99.90;;;;;;4994146;28;20484;-85
2023/09/29 07:05:22;;;;;;;0.60;0.60;;;18.20;99.90;;;;;;4978981;28;20050;-86
2023/09/29 07:07:51;;;;;;;0.70;0.70;;;18.40;99.90;;;;;;4977208;28;20049;-86
2023/09/29 07:10:19;;;;;;;0.60;0.60;;;18.10;99.90;;;;;;4977923;28;20055;-82
2023/09/29 07:12:46;;;;;;;0.70;0.70;;;18.10;99.90;;;;;;4984275;28;20042;-87
2023/09/29 07:15:14;;;;;;;0.70;0.70;;;18.20;99.90;;;;;;4968461;28;20101;-87
2023/09/29 07:17:43;;;;;;;0.70;0.70;;;18.30;99.90;;;;;;4975017;28;20322;-87
2023/09/29 07:20:45;;;;;;;0.70;0.70;;;18.40;99.90;;;;;;4955309;28;20047;-84
2023/09/29 07:23:23;;;;;;;0.70;0.70;;;18.30;99.90;;;;;;4960823;28;20109;-85
2023/09/29 07:25:51;;;;;;;0.70;0.70;;;18.50;99.90;;;;;;4956296;28;20042;-86
2023/09/29 07:28:23;;;;;;;0.70;0.70;;;18.40;99.90;;;;;;4956675;28;20081;-86
2023/09/29 07:30:52;;;;;;;0.70;0.70;;;18.60;99.90;;;;;;4975270;28;20046;-86
2023/09/29 07:33:18;;;;;;;0.70;0.70;;;18.50;99.90;;;;;;4974550;28;20046;-84
2023/09/29 07:35:46;;;;;;;0.50;0.50;;;18.60;99.90;;;;;;4973708;28;20043;-87
2023/09/29 07:38:17;;;;;;;0.60;0.60;;;18.70;99.90;;;;;;4971684;28;20125;-85
2023/09/29 07:40:55;;;;;;;0.60;0.60;;;18.70;99.90;;;;;;4978150;28;20156;-84
2023/09/29 07:43:23;;;;;;;0.60;0.60;;;18.70;99.90;;;;;;4983951;28;20476;-85
2023/09/29 07:45:51;;;;;;;0.60;0.60;;;18.90;99.90;;;;;;4961638;28;20049;-87
2023/09/29 07:48:19;;;;;;;0.60;0.60;;;18.90;99.90;;;;;;4975716;28;20054;-88
2023/09/29 07:50:45;;;;;;;0.60;0.60;;;18.90;99.90;;;;;;4979919;28;20137;-84
2023/09/29 07:53:12;;;;;;;0.60;0.60;;;19.00;99.90;;;;;;4984168;28;20129;-85
2023/09/29 07:55:37;;;;;;;0.60;0.60;;;19.10;99.90;;;;;;4961782;28;20142;-87
2023/09/29 07:58:03;;;;;;;0.52;0.52;;;19.20;99.90;;;;;;4983590;28;20128;-84
2023/09/29 08:00:29;;;;;;;0.50;0.50;;;19.30;99.90;;;;;;4966221;28;20458;-84
2023/09/29 08:02:55;;;;;;;0.60;0.60;;;19.40;99.90;;;;;;4966111;28;20132;-83
2023/09/29 08:05:20;;;;;;;0.50;0.50;;;19.30;99.90;;;;;;4968284;28;20669;-85
2023/09/29 08:07:46;;;;;;;0.50;0.50;;;19.40;99.90;;;;;;4968918;28;20112;-85
2023/09/29 08:10:12;;;;;;;0.50;0.50;;;19.30;99.90;;;;;;4967037;28;20574;-89
2023/09/29 08:12:37;;;;;;;0.50;0.50;;;19.40;99.90;;;;;;4982893;28;20042;-89
2023/09/29 08:15:06;;;;;;;0.50;0.50;;;19.60;99.90;;;;;;4973806;28;20050;-88
2023/09/29 08:17:32;;;;;;;0.50;0.50;;;19.70;99.90;;;;;;4974828;28;20049;-85
2023/09/29 08:19:58;;;;;;;0.50;0.50;;;19.80;99.90;;;;;;4963616;28;20504;-88
2023/09/29 08:22:24;;;;;;;0.50;0.50;;;19.90;99.90;;;;;;4980990;28;20100;-88
2023/09/29 08:24:50;;;;;;;0.50;0.50;;;19.90;99.90;;;;;;4964004;28;20057;-86
2023/09/29 08:27:15;;;;;;;0.50;0.50;;;20.30;99.90;;;;;;4958417;28;20052;-85
2023/09/29 08:29:41;;;;;;;0.50;0.50;;;20.50;99.90;;;;;;4963341;28;20641;-85
2023/09/29 08:32:06;;;;;;;0.50;0.50;;;20.70;99.90;;;;;;4987241;28;20046;-84
2023/09/29 08:34:34;;;;;;;0.50;0.50;;;20.90;99.90;;;;;;4964730;28;20054;-84
2023/09/29 08:37:00;;;;;;;0.50;0.50;;;20.80;99.90;;;;;;4984469;28;20160;-86
2023/09/29 08:39:25;;;;;;;0.50;0.50;;;20.80;99.90;;;;;;4981112;28;20558;-86
2023/09/29 08:42:04;;;;;;;0.50;0.50;;;20.90;99.90;;;;;;4965728;28;20051;-85
2023/09/29 08:44:32;;;;;;;0.50;0.50;;;21.00;99.90;;;;;;4976575;28;20112;-89
2023/09/29 08:47:01;;;;;;;0.50;0.50;;;21.00;99.90;;;;;;4947406;28;20065;-82
2023/09/29 08:49:28;;;;;;;0.50;0.50;;;21.20;99.90;;;;;;4979869;28;20041;-82
2023/09/29 08:51:55;;;;;;;0.40;0.40;;;21.30;99.90;;;;;;4987739;28;20405;-83
2023/09/29 08:54:23;;;;;;;0.40;0.40;;;21.50;99.90;;;;;;4968830;28;20045;-81
2023/09/29 08:56:50;;;;;;;0.50;0.50;;;21.70;99.90;;;;;;4969699;28;20050;-89
2023/09/29 08:59:19;;;;;;;0.50;0.50;;;21.70;99.90;;;;;;4973832;28;20053;-95
2023/09/29 09:01:49;;;;;;;0.40;0.40;;;21.90;99.90;;;;;;4975186;28;20057;-89
2023/09/29 09:04:17;;;;;;;0.50;0.50;;;21.80;99.90;;;;;;4973275;28;20053;-88
2023/09/29 09:06:43;;;;;;;0.50;0.50;;;21.90;99.90;;;;;;4961486;28;20058;-87
2023/09/29 09:09:09;;;;;;;0.50;0.50;;;21.90;99.90;;;;;;4959737;28;20051;-86
2023/09/29 09:11:44;;;;;;;0.40;0.40;;;21.90;99.90;;;;;;4977292;28;20061;-86
2023/09/29 09:14:10;;;;;;;0.40;0.40;;;21.90;99.90;;;;;;4976295;28;20049;-90
2023/09/29 09:16:37;;;;;;;0.50;0.50;;;21.80;99.90;;;;;;4961193;28;20732;-84
2023/09/29 09:19:16;;;;;;;0.50;0.50;;;21.80;99.90;;;;;;4982517;28;20042;-88
2023/09/29 09:21:43;;;;;;;0.50;0.50;;;21.80;99.90;;;;;;4969740;28;20050;-93
2023/09/29 09:24:25;;;;;;;0.43;0.43;;;21.80;99.90;;;;;;4970688;28;20129;-86
2023/09/29 09:27:01;;;;;;;0.50;0.50;;;21.90;99.90;;;;;;4969100;28;20077;-90
2023/09/29 09:29:40;;;;;;;0.50;0.50;;;21.90;99.90;;;;;;4961427;28;20112;-89
2023/09/29 09:32:06;;;;;;;0.50;0.50;;;22.20;99.90;;;;;;4982189;28;20050;-85
2023/09/29 09:34:33;;;;;;;0.50;0.50;;;22.40;99.90;;;;;;4986127;28;20042;-87
2023/09/29 09:36:59;;;;;;;0.50;0.50;;;22.30;99.90;;;;;;4979495;28;20049;-84
2023/09/29 09:39:28;;;;;;;0.50;0.50;;;22.40;99.90;;;;;;4985071;28;20096;-86
2023/09/29 09:41:56;;;;;;;0.50;0.50;;;22.30;99.90;;;;;;4968862;28;20130;-86
2023/09/29 09:44:23;;;;;;;0.50;0.50;;;22.70;99.90;;;;;;4979930;28;20474;-86
2023/09/29 09:46:54;;;;;;;0.50;0.50;;;22.60;99.90;;;;;;4979156;28;20051;-89
2023/09/29 09:49:36;;;;;;;0.50;0.50;;;22.70;99.90;;;;;;4960321;28;20050;-83
2023/09/29 09:52:07;;;;;;;0.50;0.50;;;22.80;99.90;;;;;;4979186;28;20482;-84
2023/09/29 09:54:40;;;;;;;0.70;0.70;;;23.10;99.90;;;;;;4968553;28;20045;-89
2023/09/29 09:57:10;;;;;;;0.50;0.50;;;23.30;99.90;;;;;;4966486;28;20125;-91
2023/09/29 09:59:43;;;;;;;0.60;0.60;;;23.10;99.90;;;;;;4984052;28;20058;-94
2023/09/29 10:02:11;;;;;;;0.50;0.50;;;22.80;99.90;;;;;;4970378;28;20050;-88
2023/09/29 10:04:43;;;;;;;0.50;0.50;;;22.70;99.90;;;;;;4968764;28;20056;-91
2023/09/29 10:07:10;;;;;;;0.60;0.60;;;22.60;99.90;;;;;;5001721;28;20048;-89
2023/09/29 10:10:22;;;;;;;0.57;0.57;;;22.50;99.90;;;;;;4970427;28;20049;-93
2023/09/29 10:12:54;;;;;;;0.60;0.60;;;22.50;99.90;;;;;;4986078;28;20054;-95
2023/09/29 10:15:20;;;;;;;0.60;0.60;;;22.40;99.90;;;;;;4968177;28;20034;-85
2023/09/29 10:17:47;;;;;;;0.50;0.50;;;22.30;99.90;;;;;;4981729;28;20042;-83
2023/09/29 10:20:24;;;;;;;0.60;0.60;;;22.40;99.90;;;;;;4983340;28;20091;-83
2023/09/29 10:23:01;;;;;;;0.60;0.60;;;22.60;99.90;;;;;;5000848;28;20069;-90
2023/09/29 10:25:26;;;;;;;0.50;0.50;;;22.80;99.90;;;;;;4984823;28;20057;-84
2023/09/29 10:28:06;;;;;;;0.50;0.50;;;22.90;99.90;;;;;;4978986;28;20152;-91
2023/09/29 10:30:33;;;;;;;0.50;0.50;;;23.30;99.90;;;;;;4978542;28;20046;-88
2023/09/29 10:33:07;;;;;;;0.50;0.50;;;23.10;99.90;;;;;;4964540;28;20045;-90
2023/09/29 10:35:47;;;;;;;0.60;0.60;;;23.20;99.90;;;;;;4987860;28;20156;-90
2023/09/29 10:38:26;;;;;;;0.60;0.60;;;23.10;99.90;;;;;;4966320;28;20157;-93
2023/09/29 10:40:57;;;;;;;0.50;0.50;;;22.90;99.90;;;;;;4981405;28;20194;-93
2023/09/29 10:43:23;;;;;;;0.50;0.50;;;22.60;99.90;;;;;;4987071;28;20121;-90
2023/09/29 10:45:52;;;;;;;0.50;0.50;;;22.50;99.90;;;;;;4968398;28;20050;-88
2023/09/29 10:48:21;;;;;;;0.60;0.60;;;22.50;99.90;;;;;;4966412;28;20050;-90
2023/09/29 10:50:51;;;;;;;0.60;0.60;;;22.30;99.90;;;;;;4965422;28;20046;-85
2023/09/29 10:53:21;;;;;;;0.68;0.68;;;22.20;99.90;;;;;;4985225;28;20092;-87
2023/09/29 10:55:50;;;;;;;0.60;0.60;;;22.00;99.90;;;;;;4968425;28;20116;-86
2023/09/29 10:58:17;;;;;;;0.60;0.60;;;22.00;99.90;;;;;;4980956;28;20064;-85
2023/09/29 11:00:48;;;;;;;0.60;0.60;;;22.10;99.90;;;;;;4981250;28;20627;-86
2023/09/29 11:03:21;;;;;;;0.60;0.60;;;22.40;99.90;;;;;;4986597;28;20042;-90
2023/09/29 11:05:58;;;;;;;0.60;0.60;;;22.60;99.90;;;;;;4979028;28;20054;-90
2023/09/29 11:08:34;;;;;;;0.60;0.60;;;22.70;99.90;;;;;;4978496;28;20133;-86
2023/09/29 11:11:05;;;;;;;0.60;0.60;;;22.50;99.90;;;;;;4981264;28;20511;-86
2023/09/29 11:13:31;;;;;;;0.70;0.70;;;22.40;99.90;;;;;;4960419;28;20057;-83
2023/09/29 11:16:00;;;;;;;0.60;0.60;;;22.50;99.90;;;;;;4980889;28;20041;-83
2023/09/29 11:18:31;;;;;;;0.60;0.60;;;22.80;99.90;;;;;;4979960;28;20038;-87
2023/09/29 11:21:11;;;;;;;0.60;0.60;;;22.90;99.90;;;;;;4998022;28;20050;-86
2023/09/29 11:23:48;;;;;;;0.60;0.60;;;22.80;99.90;;;;;;4974941;28;20052;-86
2023/09/29 11:26:15;;;;;;;0.68;0.68;;;22.70;99.90;;;;;;4973299;28;20531;-85
2023/09/29 11:28:43;;;;;;;0.60;0.60;;;22.70;99.90;;;;;;4979075;28;20586;-84
2023/09/29 11:31:12;;;;;;;0.50;0.50;;;22.70;99.90;;;;;;4960667;28;20050;-87
2023/09/29 11:33:47;;;;;;;0.60;0.60;;;22.80;99.90;;;;;;4985143;28;20081;-88
2023/09/29 11:36:17;;;;;;;0.60;0.60;;;22.70;99.90;;;;;;4976681;28;21844;-85
2023/09/29 11:38:44;;;;;;;0.60;0.60;;;22.90;99.90;;;;;;4978547;28;20037;-89
2023/09/29 11:41:17;;;;;;;0.50;0.50;;;23.10;99.90;;;;;;4974087;28;20050;-91
2023/09/29 11:43:45;;;;;;;0.50;0.50;;;23.00;99.90;;;;;;4964864;28;20041;-86
2023/09/29 11:46:13;;;;;;;0.60;0.60;;;22.90;99.90;;;;;;4979307;28;20057;-88
2023/09/29 11:48:43;;;;;;;0.60;0.60;;;23.10;99.90;;;;;;4982048;28;20038;-89
2023/09/29 11:51:10;;;;;;;0.50;0.50;;;23.00;99.90;;;;;;4965548;28;20479;-85
2023/09/29 11:53:38;;;;;;;0.60;0.60;;;22.80;99.90;;;;;;4979202;28;20054;-86
2023/09/29 11:56:05;;;;;;;0.50;0.50;;;22.70;99.90;;;;;;4959396;28;20089;-86
2023/09/29 11:58:31;;;;;;;0.50;0.50;;;22.50;99.90;;;;;;4976828;28;20060;-85
2023/09/29 12:00:58;;;;;;;0.50;0.50;;;22.50;99.90;;;;;;4969035;28;20096;-93
2023/09/29 12:03:27;;;;;;;0.50;0.50;;;22.40;99.90;;;;;;4974448;28;20058;-94
2023/09/29 12:06:01;;;;;;;0.60;0.60;;;22.40;99.90;;;;;;4965713;28;20080;-87
2023/09/29 12:08:28;;;;;;;0.80;0.80;;;22.50;99.90;;;;;;4978637;28;20125;-89
2023/09/29 12:10:53;;;;;;;0.60;0.60;;;22.50;99.90;;;;;;4968876;28;20474;-89
2023/09/29 12:13:19;;;;;;;0.52;0.52;;;22.60;99.90;;;;;;4977855;28;20042;-85
2023/09/29 12:15:46;;;;;;;0.50;0.50;;;22.50;99.90;;;;;;4978342;28;20060;-87
2023/09/29 12:18:12;;;;;;;0.60;0.60;;;22.50;99.90;;;;;;4965553;28;20092;-86
2023/09/29 12:20:43;;;;;;;0.50;0.50;;;22.50;99.90;;;;;;4984020;28;20050;-86
2023/09/29 12:23:12;;;;;;;0.60;0.60;;;22.70;99.90;;;;;;4968601;28;20046;-92
2023/09/29 12:25:38;;;;;;;0.50;0.50;;;22.70;99.90;;;;;;4987663;28;20073;-85
2023/09/29 12:28:20;;;;;;;0.60;0.60;;;22.60;99.90;;;;;;4968771;28;20049;-93
2023/09/29 12:30:52;;;;;;;0.60;0.60;;;22.50;99.90;;;;;;4986382;28;20076;-94
2023/09/29 12:33:19;;;;;;;0.60;0.60;;;22.40;99.90;;;;;;4966953;28;20047;-87
2023/09/29 12:35:45;;;;;;;0.60;0.60;;;22.50;99.90;;;;;;4990061;28;20050;-89
2023/09/29 12:38:10;;;;;;;0.60;0.60;;;22.50;99.90;;;;;;4960848;28;20052;-86
2023/09/29 12:40:37;;;;;;;0.60;0.60;;;22.40;99.90;;;;;;4982667;28;20729;-88
2023/09/29 12:43:03;;;;;;;0.60;0.60;;;22.40;99.90;;;;;;4986168;28;20054;-87
2023/09/29 12:45:28;;;;;;;0.52;0.52;;;22.30;99.90;;;;;;4986871;28;20104;-89
2023/09/29 12:47:56;;;;;;;0.60;0.60;;;22.20;99.90;;;;;;4974573;28;20576;-87
2023/09/29 12:50:30;;;;;;;0.50;0.50;;;22.00;99.90;;;;;;4970498;28;20447;-89
2023/09/29 12:52:56;;;;;;;0.50;0.50;;;22.00;99.90;;;;;;4967251;28;20042;-90
2023/09/29 12:55:25;;;;;;;0.50;0.50;;;21.70;99.90;;;;;;4977647;28;20096;-89
2023/09/29 12:57:54;;;;;;;0.50;0.50;;;21.50;99.90;;;;;;4982220;28;20044;-91
2023/09/29 13:00:22;;;;;;;0.60;0.60;;;21.40;99.90;;;;;;4965861;28;20092;-90
2023/09/29 13:02:51;;;;;;;0.50;0.50;;;21.60;99.90;;;;;;4980237;28;20038;-86
2023/09/29 13:05:17;;;;;;;0.60;0.60;;;21.80;99.90;;;;;;4965912;28;20054;-89